sensor_id;sensor_type;location;lat;lon;timestamp;P1;durP1;ratioP1;P2;durP2;ratioP2
37787;SDS011;23627;53.302;-6.362;2022-09-24T00:01:31;4.75;;;1.20;;
37787;SDS011;23627;53.302;-6.362;2022-09-24T00:04:00;3.65;;;1.08;;
37787;SDS011;23627;53.302;-6.362;2022-09-24T00:06:29;3.65;;;1.38;;
37787;SDS011;23627;53.302;-6.362;2022-09-24T00:09:00;3.92;;;1.20;;
37787;SDS011;23627;53.302;-6.362;2022-09-24T00:11:26;4.18;;;1.67;;
37787;SDS011;23627;53.302;-6.362;2022-09-24T00:13:53;3.80;;;1.30;;
37787;SDS011;23627;53.302;-6.362;2022-09-24T00:16:21;3.55;;;0.90;;
37787;SDS011;23627;53.302;-6.362;2022-09-24T00:18:50;3.50;;;1.15;;
37787;SDS011;23627;53.302;-6.362;2022-09-24T00:21:17;3.70;;;1.05;;
37787;SDS011;23627;53.302;-6.362;2022-09-24T00:23:49;6.55;;;1.30;;
37787;SDS011;23627;53.302;-6.362;2022-09-24T00:26:16;4.68;;;1.52;;
37787;SDS011;23627;53.302;-6.362;2022-09-24T00:29:01;5.82;;;1.27;;
37787;SDS011;23627;53.302;-6.362;2022-09-24T00:31:27;7.68;;;1.50;;
37787;SDS011;23627;53.302;-6.362;2022-09-24T00:33:53;6.20;;;1.25;;
37787;SDS011;23627;53.302;-6.362;2022-09-24T00:36:20;2.53;;;1.05;;
37787;SDS011;23627;53.302;-6.362;2022-09-24T00:38:47;5.35;;;1.33;;
37787;SDS011;23627;53.302;-6.362;2022-09-24T00:41:17;2.58;;;0.98;;
37787;SDS011;23627;53.302;-6.362;2022-09-24T00:43:45;3.75;;;1.13;;
37787;SDS011;23627;53.302;-6.362;2022-09-24T00:48:56;2.95;;;0.93;;
37787;SDS011;23627;53.302;-6.362;2022-09-24T00:51:28;5.20;;;1.15;;
37787;SDS011;23627;53.302;-6.362;2022-09-24T00:53:56;3.78;;;1.20;;
37787;SDS011;23627;53.302;-6.362;2022-09-24T00:56:25;5.78;;;1.20;;
37787;SDS011;23627;53.302;-6.362;2022-09-24T00:58:56;4.05;;;1.23;;
37787;SDS011;23627;53.302;-6.362;2022-09-24T01:01:26;4.88;;;1.33;;
37787;SDS011;23627;53.302;-6.362;2022-09-24T01:03:54;2.70;;;0.98;;
37787;SDS011;23627;53.302;-6.362;2022-09-24T01:06:22;4.15;;;1.42;;
37787;SDS011;23627;53.302;-6.362;2022-09-24T01:08:49;5.07;;;0.90;;
37787;SDS011;23627;53.302;-6.362;2022-09-24T01:30:29;5.13;;;1.17;;
37787;SDS011;23627;53.302;-6.362;2022-09-24T01:32:59;4.72;;;1.05;;
37787;SDS011;23627;53.302;-6.362;2022-09-24T01:35:30;2.83;;;0.90;;
37787;SDS011;23627;53.302;-6.362;2022-09-24T01:38:15;2.78;;;1.00;;
37787;SDS011;23627;53.302;-6.362;2022-09-24T01:40:46;2.17;;;1.20;;
37787;SDS011;23627;53.302;-6.362;2022-09-24T01:43:15;2.45;;;0.90;;
37787;SDS011;23627;53.302;-6.362;2022-09-24T01:45:44;3.50;;;1.10;;
37787;SDS011;23627;53.302;-6.362;2022-09-24T01:48:10;3.17;;;0.70;;
37787;SDS011;23627;53.302;-6.362;2022-09-24T01:50:41;2.72;;;0.80;;
37787;SDS011;23627;53.302;-6.362;2022-09-24T01:53:20;5.57;;;1.10;;
37787;SDS011;23627;53.302;-6.362;2022-09-24T01:55:50;3.97;;;0.98;;
37787;SDS011;23627;53.302;-6.362;2022-09-24T01:58:22;4.38;;;1.02;;
37787;SDS011;23627;53.302;-6.362;2022-09-24T02:01:06;3.20;;;1.27;;
37787;SDS011;23627;53.302;-6.362;2022-09-24T02:03:38;2.42;;;1.00;;
37787;SDS011;23627;53.302;-6.362;2022-09-24T02:06:11;2.30;;;0.80;;
37787;SDS011;23627;53.302;-6.362;2022-09-24T02:08:45;2.25;;;0.90;;
37787;SDS011;23627;53.302;-6.362;2022-09-24T02:13:45;2.83;;;0.88;;
37787;SDS011;23627;53.302;-6.362;2022-09-24T02:16:25;3.35;;;1.15;;
37787;SDS011;23627;53.302;-6.362;2022-09-24T02:18:59;3.65;;;1.00;;
37787;SDS011;23627;53.302;-6.362;2022-09-24T02:21:29;3.50;;;0.90;;
37787;SDS011;23627;53.302;-6.362;2022-09-24T02:23:58;2.67;;;0.90;;
37787;SDS011;23627;53.302;-6.362;2022-09-24T02:26:29;4.85;;;1.02;;
37787;SDS011;23627;53.302;-6.362;2022-09-24T02:28:55;3.70;;;0.80;;
37787;SDS011;23627;53.302;-6.362;2022-09-24T02:31:24;3.83;;;1.23;;
37787;SDS011;23627;53.302;-6.362;2022-09-24T02:36:42;3.50;;;0.90;;
37787;SDS011;23627;53.302;-6.362;2022-09-24T02:39:08;3.75;;;1.00;;
37787;SDS011;23627;53.302;-6.362;2022-09-24T02:41:33;2.95;;;0.70;;
37787;SDS011;23627;53.302;-6.362;2022-09-24T02:44:00;2.72;;;0.85;;
37787;SDS011;23627;53.302;-6.362;2022-09-24T02:46:26;3.97;;;1.10;;
37787;SDS011;23627;53.302;-6.362;2022-09-24T02:48:52;3.97;;;0.88;;
37787;SDS011;23627;53.302;-6.362;2022-09-24T02:51:18;4.43;;;0.90;;
37787;SDS011;23627;53.302;-6.362;2022-09-24T02:53:45;3.50;;;0.90;;
37787;SDS011;23627;53.302;-6.362;2022-09-24T02:56:11;4.47;;;0.80;;
37787;SDS011;23627;53.302;-6.362;2022-09-24T02:58:37;3.28;;;1.05;;
37787;SDS011;23627;53.302;-6.362;2022-09-24T03:01:03;2.95;;;1.10;;
37787;SDS011;23627;53.302;-6.362;2022-09-24T03:03:30;2.10;;;0.90;;
37787;SDS011;23627;53.302;-6.362;2022-09-24T03:05:56;4.05;;;0.90;;
37787;SDS011;23627;53.302;-6.362;2022-09-24T03:08:22;4.38;;;1.13;;
37787;SDS011;23627;53.302;-6.362;2022-09-24T03:10:49;4.22;;;1.00;;
37787;SDS011;23627;53.302;-6.362;2022-09-24T03:13:18;3.35;;;0.95;;
37787;SDS011;23627;53.302;-6.362;2022-09-24T03:15:44;2.53;;;0.73;;
37787;SDS011;23627;53.302;-6.362;2022-09-24T03:18:10;6.18;;;1.20;;
37787;SDS011;23627;53.302;-6.362;2022-09-24T03:20:36;5.10;;;1.15;;
37787;SDS011;23627;53.302;-6.362;2022-09-24T03:23:02;3.85;;;1.05;;
37787;SDS011;23627;53.302;-6.362;2022-09-24T03:25:28;3.60;;;0.90;;
37787;SDS011;23627;53.302;-6.362;2022-09-24T03:27:54;3.38;;;0.98;;
37787;SDS011;23627;53.302;-6.362;2022-09-24T03:30:20;3.75;;;0.85;;
37787;SDS011;23627;53.302;-6.362;2022-09-24T03:33:04;4.22;;;1.00;;
37787;SDS011;23627;53.302;-6.362;2022-09-24T03:35:29;4.40;;;1.00;;
37787;SDS011;23627;53.302;-6.362;2022-09-24T03:37:55;4.05;;;1.00;;
37787;SDS011;23627;53.302;-6.362;2022-09-24T03:40:21;2.83;;;1.02;;
37787;SDS011;23627;53.302;-6.362;2022-09-24T03:42:47;2.55;;;1.00;;
37787;SDS011;23627;53.302;-6.362;2022-09-24T03:45:13;5.72;;;1.60;;
37787;SDS011;23627;53.302;-6.362;2022-09-24T03:47:39;3.55;;;0.88;;
37787;SDS011;23627;53.302;-6.362;2022-09-24T03:50:06;3.88;;;0.82;;
37787;SDS011;23627;53.302;-6.362;2022-09-24T03:52:36;5.95;;;0.90;;
37787;SDS011;23627;53.302;-6.362;2022-09-24T03:55:03;5.18;;;1.35;;
37787;SDS011;23627;53.302;-6.362;2022-09-24T03:57:29;3.75;;;1.08;;
37787;SDS011;23627;53.302;-6.362;2022-09-24T03:59:55;3.67;;;1.10;;
37787;SDS011;23627;53.302;-6.362;2022-09-24T04:02:22;3.70;;;0.73;;
37787;SDS011;23627;53.302;-6.362;2022-09-24T04:04:48;5.07;;;0.93;;
37787;SDS011;23627;53.302;-6.362;2022-09-24T04:07:14;4.63;;;1.00;;
37787;SDS011;23627;53.302;-6.362;2022-09-24T04:09:40;4.38;;;0.90;;
37787;SDS011;23627;53.302;-6.362;2022-09-24T04:12:05;4.13;;;0.90;;
37787;SDS011;23627;53.302;-6.362;2022-09-24T04:14:31;3.42;;;0.88;;
37787;SDS011;23627;53.302;-6.362;2022-09-24T04:16:57;3.05;;;0.80;;
37787;SDS011;23627;53.302;-6.362;2022-09-24T04:19:23;2.65;;;0.80;;
37787;SDS011;23627;53.302;-6.362;2022-09-24T04:21:49;4.82;;;1.00;;
37787;SDS011;23627;53.302;-6.362;2022-09-24T04:24:14;3.05;;;0.70;;
37787;SDS011;23627;53.302;-6.362;2022-09-24T04:26:40;3.35;;;0.98;;
37787;SDS011;23627;53.302;-6.362;2022-09-24T04:29:06;2.65;;;0.70;;
37787;SDS011;23627;53.302;-6.362;2022-09-24T04:31:32;3.85;;;0.80;;
37787;SDS011;23627;53.302;-6.362;2022-09-24T04:33:58;5.28;;;1.00;;
37787;SDS011;23627;53.302;-6.362;2022-09-24T04:36:24;2.22;;;0.70;;
37787;SDS011;23627;53.302;-6.362;2022-09-24T04:38:50;2.75;;;0.70;;
37787;SDS011;23627;53.302;-6.362;2022-09-24T04:41:16;2.25;;;0.77;;
37787;SDS011;23627;53.302;-6.362;2022-09-24T04:43:41;2.55;;;0.90;;
37787;SDS011;23627;53.302;-6.362;2022-09-24T04:46:10;2.40;;;0.80;;
37787;SDS011;23627;53.302;-6.362;2022-09-24T04:48:37;3.17;;;0.90;;
37787;SDS011;23627;53.302;-6.362;2022-09-24T04:51:06;3.42;;;0.73;;
37787;SDS011;23627;53.302;-6.362;2022-09-24T04:53:34;5.15;;;0.90;;
37787;SDS011;23627;53.302;-6.362;2022-09-24T04:56:02;2.55;;;0.73;;
37787;SDS011;23627;53.302;-6.362;2022-09-24T04:58:29;3.47;;;0.90;;
37787;SDS011;23627;53.302;-6.362;2022-09-24T05:00:55;5.03;;;0.88;;
37787;SDS011;23627;53.302;-6.362;2022-09-24T05:03:20;4.43;;;1.33;;
37787;SDS011;23627;53.302;-6.362;2022-09-24T05:06:02;4.45;;;0.90;;
37787;SDS011;23627;53.302;-6.362;2022-09-24T05:08:27;2.85;;;0.82;;
37787;SDS011;23627;53.302;-6.362;2022-09-24T05:10:56;4.57;;;0.75;;
37787;SDS011;23627;53.302;-6.362;2022-09-24T05:13:22;4.00;;;1.13;;
37787;SDS011;23627;53.302;-6.362;2022-09-24T05:15:47;3.17;;;0.85;;
37787;SDS011;23627;53.302;-6.362;2022-09-24T05:18:13;3.40;;;0.80;;
37787;SDS011;23627;53.302;-6.362;2022-09-24T05:20:39;5.82;;;0.95;;
37787;SDS011;23627;53.302;-6.362;2022-09-24T05:23:05;6.30;;;1.13;;
37787;SDS011;23627;53.302;-6.362;2022-09-24T05:25:31;2.17;;;0.80;;
37787;SDS011;23627;53.302;-6.362;2022-09-24T05:27:57;3.42;;;0.77;;
37787;SDS011;23627;53.302;-6.362;2022-09-24T05:30:23;2.50;;;0.90;;
37787;SDS011;23627;53.302;-6.362;2022-09-24T05:32:49;3.70;;;0.93;;
37787;SDS011;23627;53.302;-6.362;2022-09-24T05:35:22;4.53;;;0.90;;
37787;SDS011;23627;53.302;-6.362;2022-09-24T05:37:48;2.95;;;1.02;;
37787;SDS011;23627;53.302;-6.362;2022-09-24T05:40:16;2.25;;;1.10;;
37787;SDS011;23627;53.302;-6.362;2022-09-24T05:43:01;3.33;;;1.10;;
37787;SDS011;23627;53.302;-6.362;2022-09-24T05:45:28;2.20;;;0.60;;
37787;SDS011;23627;53.302;-6.362;2022-09-24T05:47:54;2.83;;;0.75;;
37787;SDS011;23627;53.302;-6.362;2022-09-24T05:50:20;3.65;;;0.75;;
37787;SDS011;23627;53.302;-6.362;2022-09-24T05:52:46;2.47;;;0.80;;
37787;SDS011;23627;53.302;-6.362;2022-09-24T05:55:12;3.95;;;0.80;;
37787;SDS011;23627;53.302;-6.362;2022-09-24T05:57:38;6.25;;;1.10;;
37787;SDS011;23627;53.302;-6.362;2022-09-24T06:00:04;2.80;;;0.75;;
37787;SDS011;23627;53.302;-6.362;2022-09-24T06:02:31;3.38;;;0.60;;
37787;SDS011;23627;53.302;-6.362;2022-09-24T06:04:57;3.45;;;1.00;;
37787;SDS011;23627;53.302;-6.362;2022-09-24T06:07:23;3.13;;;0.90;;
37787;SDS011;23627;53.302;-6.362;2022-09-24T06:09:49;2.42;;;0.82;;
37787;SDS011;23627;53.302;-6.362;2022-09-24T06:12:15;4.18;;;0.68;;
37787;SDS011;23627;53.302;-6.362;2022-09-24T06:14:41;3.40;;;1.08;;
37787;SDS011;23627;53.302;-6.362;2022-09-24T06:17:10;2.25;;;0.60;;
37787;SDS011;23627;53.302;-6.362;2022-09-24T06:19:36;2.38;;;0.60;;
37787;SDS011;23627;53.302;-6.362;2022-09-24T06:22:03;2.55;;;0.70;;
37787;SDS011;23627;53.302;-6.362;2022-09-24T06:24:29;3.60;;;0.90;;
37787;SDS011;23627;53.302;-6.362;2022-09-24T06:26:54;2.85;;;0.85;;
37787;SDS011;23627;53.302;-6.362;2022-09-24T06:29:22;3.05;;;0.80;;
37787;SDS011;23627;53.302;-6.362;2022-09-24T06:31:48;3.55;;;0.75;;
37787;SDS011;23627;53.302;-6.362;2022-09-24T06:34:14;2.92;;;0.70;;
37787;SDS011;23627;53.302;-6.362;2022-09-24T06:36:40;3.47;;;0.70;;
37787;SDS011;23627;53.302;-6.362;2022-09-24T06:39:06;1.58;;;0.77;;
37787;SDS011;23627;53.302;-6.362;2022-09-24T06:41:32;2.33;;;0.70;;
37787;SDS011;23627;53.302;-6.362;2022-09-24T06:43:58;3.10;;;0.80;;
37787;SDS011;23627;53.302;-6.362;2022-09-24T06:46:23;4.32;;;0.85;;
37787;SDS011;23627;53.302;-6.362;2022-09-24T06:48:50;3.65;;;1.13;;
37787;SDS011;23627;53.302;-6.362;2022-09-24T06:51:18;3.05;;;0.80;;
37787;SDS011;23627;53.302;-6.362;2022-09-24T06:53:44;2.15;;;0.90;;
37787;SDS011;23627;53.302;-6.362;2022-09-24T06:59:31;3.08;;;0.60;;
37787;SDS011;23627;53.302;-6.362;2022-09-24T07:01:57;3.75;;;0.90;;
37787;SDS011;23627;53.302;-6.362;2022-09-24T07:04:23;3.08;;;0.73;;
37787;SDS011;23627;53.302;-6.362;2022-09-24T07:06:49;3.38;;;0.90;;
37787;SDS011;23627;53.302;-6.362;2022-09-24T07:09:38;4.55;;;1.00;;
37787;SDS011;23627;53.302;-6.362;2022-09-24T07:12:05;2.30;;;0.60;;
37787;SDS011;23627;53.302;-6.362;2022-09-24T07:14:32;3.22;;;0.90;;
37787;SDS011;23627;53.302;-6.362;2022-09-24T07:16:58;2.22;;;0.70;;
37787;SDS011;23627;53.302;-6.362;2022-09-24T07:19:24;3.42;;;0.85;;
37787;SDS011;23627;53.302;-6.362;2022-09-24T07:21:50;3.47;;;0.85;;
37787;SDS011;23627;53.302;-6.362;2022-09-24T07:24:15;1.63;;;0.60;;
37787;SDS011;23627;53.302;-6.362;2022-09-24T07:26:41;2.78;;;0.80;;
37787;SDS011;23627;53.302;-6.362;2022-09-24T07:29:07;3.38;;;0.88;;
37787;SDS011;23627;53.302;-6.362;2022-09-24T07:31:33;2.08;;;0.77;;
37787;SDS011;23627;53.302;-6.362;2022-09-24T07:34:00;4.03;;;0.77;;
37787;SDS011;23627;53.302;-6.362;2022-09-24T07:36:26;2.47;;;0.68;;
37787;SDS011;23627;53.302;-6.362;2022-09-24T07:38:55;3.03;;;0.90;;
37787;SDS011;23627;53.302;-6.362;2022-09-24T07:41:21;4.78;;;0.82;;
37787;SDS011;23627;53.302;-6.362;2022-09-24T07:43:47;3.42;;;0.65;;
37787;SDS011;23627;53.302;-6.362;2022-09-24T07:46:13;3.03;;;0.70;;
37787;SDS011;23627;53.302;-6.362;2022-09-24T07:48:38;6.20;;;1.25;;
37787;SDS011;23627;53.302;-6.362;2022-09-24T07:51:08;2.78;;;0.82;;
37787;SDS011;23627;53.302;-6.362;2022-09-24T07:53:34;3.72;;;0.93;;
37787;SDS011;23627;53.302;-6.362;2022-09-24T07:55:59;2.60;;;0.90;;
37787;SDS011;23627;53.302;-6.362;2022-09-24T07:58:25;6.20;;;1.00;;
37787;SDS011;23627;53.302;-6.362;2022-09-24T08:00:51;2.90;;;0.60;;
37787;SDS011;23627;53.302;-6.362;2022-09-24T08:03:17;4.40;;;0.82;;
37787;SDS011;23627;53.302;-6.362;2022-09-24T08:05:44;2.88;;;0.70;;
37787;SDS011;23627;53.302;-6.362;2022-09-24T08:08:09;2.05;;;0.88;;
37787;SDS011;23627;53.302;-6.362;2022-09-24T08:10:35;4.82;;;0.90;;
37787;SDS011;23627;53.302;-6.362;2022-09-24T08:13:02;1.80;;;0.70;;
37787;SDS011;23627;53.302;-6.362;2022-09-24T08:15:28;2.45;;;0.82;;
37787;SDS011;23627;53.302;-6.362;2022-09-24T08:17:59;3.00;;;0.70;;
37787;SDS011;23627;53.302;-6.362;2022-09-24T08:20:26;5.60;;;1.00;;
37787;SDS011;23627;53.302;-6.362;2022-09-24T08:22:52;3.13;;;0.80;;
37787;SDS011;23627;53.302;-6.362;2022-09-24T08:25:18;3.35;;;0.82;;
37787;SDS011;23627;53.302;-6.362;2022-09-24T08:27:44;4.07;;;0.75;;
37787;SDS011;23627;53.302;-6.362;2022-09-24T08:30:10;3.42;;;0.70;;
37787;SDS011;23627;53.302;-6.362;2022-09-24T08:32:36;3.30;;;0.80;;
37787;SDS011;23627;53.302;-6.362;2022-09-24T08:35:02;4.28;;;0.80;;
37787;SDS011;23627;53.302;-6.362;2022-09-24T08:37:28;2.75;;;0.80;;
37787;SDS011;23627;53.302;-6.362;2022-09-24T08:39:53;2.83;;;0.90;;
37787;SDS011;23627;53.302;-6.362;2022-09-24T08:45:13;4.80;;;1.00;;
37787;SDS011;23627;53.302;-6.362;2022-09-24T08:48:00;3.58;;;0.90;;
37787;SDS011;23627;53.302;-6.362;2022-09-24T08:50:35;3.33;;;0.80;;
37787;SDS011;23627;53.302;-6.362;2022-09-24T08:55:48;4.18;;;0.93;;
37787;SDS011;23627;53.302;-6.362;2022-09-24T09:03:41;3.00;;;1.02;;
37787;SDS011;23627;53.302;-6.362;2022-09-24T09:11:42;4.60;;;1.33;;
37787;SDS011;23627;53.302;-6.362;2022-09-24T09:14:29;2.83;;;1.10;;
37787;SDS011;23627;53.302;-6.362;2022-09-24T09:19:59;4.13;;;1.63;;
37787;SDS011;23627;53.302;-6.362;2022-09-24T09:22:28;3.03;;;1.10;;
37787;SDS011;23627;53.302;-6.362;2022-09-24T09:25:11;4.13;;;1.38;;
37787;SDS011;23627;53.302;-6.362;2022-09-24T09:27:49;5.25;;;1.40;;
37787;SDS011;23627;53.302;-6.362;2022-09-24T09:30:17;3.75;;;1.23;;
37787;SDS011;23627;53.302;-6.362;2022-09-24T09:40:47;2.58;;;1.00;;
37787;SDS011;23627;53.302;-6.362;2022-09-24T09:43:19;4.30;;;1.40;;
37787;SDS011;23627;53.302;-6.362;2022-09-24T09:48:21;2.53;;;1.20;;
37787;SDS011;23627;53.302;-6.362;2022-09-24T09:50:50;3.03;;;0.82;;
37787;SDS011;23627;53.302;-6.362;2022-09-24T09:53:22;2.88;;;0.98;;
37787;SDS011;23627;53.302;-6.362;2022-09-24T09:55:52;3.70;;;1.02;;
37787;SDS011;23627;53.302;-6.362;2022-09-24T09:58:25;2.60;;;0.88;;
37787;SDS011;23627;53.302;-6.362;2022-09-24T10:01:06;3.50;;;0.85;;
37787;SDS011;23627;53.302;-6.362;2022-09-24T10:06:09;3.47;;;0.80;;
37787;SDS011;23627;53.302;-6.362;2022-09-24T10:08:39;2.53;;;0.60;;
37787;SDS011;23627;53.302;-6.362;2022-09-24T10:11:05;3.40;;;0.68;;
37787;SDS011;23627;53.302;-6.362;2022-09-24T10:13:38;2.08;;;0.50;;
37787;SDS011;23627;53.302;-6.362;2022-09-24T10:16:07;3.03;;;0.90;;
37787;SDS011;23627;53.302;-6.362;2022-09-24T10:21:05;2.42;;;0.43;;
37787;SDS011;23627;53.302;-6.362;2022-09-24T10:23:40;1.92;;;0.40;;
37787;SDS011;23627;53.302;-6.362;2022-09-24T10:26:07;2.00;;;0.45;;
37787;SDS011;23627;53.302;-6.362;2022-09-24T10:28:36;1.85;;;0.43;;
37787;SDS011;23627;53.302;-6.362;2022-09-24T10:31:34;1.27;;;0.40;;
37787;SDS011;23627;53.302;-6.362;2022-09-24T10:34:01;1.80;;;0.50;;
37787;SDS011;23627;53.302;-6.362;2022-09-24T10:36:49;2.10;;;0.32;;
37787;SDS011;23627;53.302;-6.362;2022-09-24T10:39:16;4.32;;;0.50;;
37787;SDS011;23627;53.302;-6.362;2022-09-24T10:41:49;1.83;;;0.40;;
37787;SDS011;23627;53.302;-6.362;2022-09-24T10:44:16;2.25;;;0.40;;
37787;SDS011;23627;53.302;-6.362;2022-09-24T10:47:05;1.40;;;0.40;;
37787;SDS011;23627;53.302;-6.362;2022-09-24T10:52:43;0.95;;;0.35;;
37787;SDS011;23627;53.302;-6.362;2022-09-24T10:55:44;3.10;;;0.40;;
37787;SDS011;23627;53.302;-6.362;2022-09-24T11:01:41;1.60;;;0.40;;
37787;SDS011;23627;53.302;-6.362;2022-09-24T11:04:40;1.63;;;0.30;;
37787;SDS011;23627;53.302;-6.362;2022-09-24T11:07:30;3.30;;;0.88;;
37787;SDS011;23627;53.302;-6.362;2022-09-24T11:21:19;3.33;;;0.40;;
37787;SDS011;23627;53.302;-6.362;2022-09-24T11:26:44;3.00;;;0.30;;
37787;SDS011;23627;53.302;-6.362;2022-09-24T11:32:35;3.10;;;0.40;;
37787;SDS011;23627;53.302;-6.362;2022-09-24T11:51:23;2.60;;;0.30;;
37787;SDS011;23627;53.302;-6.362;2022-09-24T11:56:46;2.28;;;0.30;;
37787;SDS011;23627;53.302;-6.362;2022-09-24T11:59:37;1.95;;;0.35;;
37787;SDS011;23627;53.302;-6.362;2022-09-24T12:02:12;1.80;;;0.40;;
37787;SDS011;23627;53.302;-6.362;2022-09-24T12:04:52;1.45;;;0.30;;
37787;SDS011;23627;53.302;-6.362;2022-09-24T12:07:30;1.45;;;0.30;;
37787;SDS011;23627;53.302;-6.362;2022-09-24T12:16:01;2.45;;;0.40;;
37787;SDS011;23627;53.302;-6.362;2022-09-24T12:18:34;1.45;;;0.45;;
37787;SDS011;23627;53.302;-6.362;2022-09-24T12:21:09;1.52;;;0.43;;
37787;SDS011;23627;53.302;-6.362;2022-09-24T12:23:40;1.15;;;0.30;;
37787;SDS011;23627;53.302;-6.362;2022-09-24T12:26:10;1.13;;;0.40;;
37787;SDS011;23627;53.302;-6.362;2022-09-24T12:32:44;2.22;;;0.40;;
37787;SDS011;23627;53.302;-6.362;2022-09-24T12:38:08;1.05;;;0.32;;
37787;SDS011;23627;53.302;-6.362;2022-09-24T12:43:41;2.63;;;0.40;;
37787;SDS011;23627;53.302;-6.362;2022-09-24T12:46:20;1.15;;;0.30;;
37787;SDS011;23627;53.302;-6.362;2022-09-24T12:48:49;1.13;;;0.40;;
37787;SDS011;23627;53.302;-6.362;2022-09-24T12:51:18;1.55;;;0.30;;
37787;SDS011;23627;53.302;-6.362;2022-09-24T12:53:58;1.77;;;0.50;;
37787;SDS011;23627;53.302;-6.362;2022-09-24T12:56:30;1.60;;;0.40;;
37787;SDS011;23627;53.302;-6.362;2022-09-24T12:58:56;2.75;;;0.30;;
37787;SDS011;23627;53.302;-6.362;2022-09-24T13:06:38;1.70;;;0.65;;
37787;SDS011;23627;53.302;-6.362;2022-09-24T13:09:25;1.50;;;0.50;;
37787;SDS011;23627;53.302;-6.362;2022-09-24T13:17:34;1.55;;;0.35;;
37787;SDS011;23627;53.302;-6.362;2022-09-24T13:24:08;0.93;;;0.30;;
37787;SDS011;23627;53.302;-6.362;2022-09-24T13:30:35;0.82;;;0.30;;
37787;SDS011;23627;53.302;-6.362;2022-09-24T13:38:32;0.95;;;0.30;;
37787;SDS011;23627;53.302;-6.362;2022-09-24T13:41:11;1.10;;;0.30;;
37787;SDS011;23627;53.302;-6.362;2022-09-24T13:46:33;1.27;;;0.30;;
37787;SDS011;23627;53.302;-6.362;2022-09-24T13:49:02;1.20;;;0.30;;
37787;SDS011;23627;53.302;-6.362;2022-09-24T13:51:35;1.48;;;0.40;;
37787;SDS011;23627;53.302;-6.362;2022-09-24T13:56:38;1.17;;;0.30;;
37787;SDS011;23627;53.302;-6.362;2022-09-24T13:59:05;1.55;;;0.40;;
37787;SDS011;23627;53.302;-6.362;2022-09-24T14:01:41;2.40;;;0.50;;
37787;SDS011;23627;53.302;-6.362;2022-09-24T14:04:14;2.25;;;0.40;;
37787;SDS011;23627;53.302;-6.362;2022-09-24T14:06:44;1.23;;;0.30;;
37787;SDS011;23627;53.302;-6.362;2022-09-24T14:11:56;2.50;;;0.47;;
37787;SDS011;23627;53.302;-6.362;2022-09-24T14:14:27;1.80;;;0.40;;
37787;SDS011;23627;53.302;-6.362;2022-09-24T14:17:04;0.77;;;0.35;;
37787;SDS011;23627;53.302;-6.362;2022-09-24T14:19:35;1.10;;;0.30;;
37787;SDS011;23627;53.302;-6.362;2022-09-24T14:22:01;2.08;;;0.50;;
37787;SDS011;23627;53.302;-6.362;2022-09-24T14:24:32;1.40;;;0.55;;
37787;SDS011;23627;53.302;-6.362;2022-09-24T14:27:04;1.60;;;0.52;;
37787;SDS011;23627;53.302;-6.362;2022-09-24T14:29:37;1.48;;;0.40;;
37787;SDS011;23627;53.302;-6.362;2022-09-24T14:32:20;1.80;;;0.50;;
37787;SDS011;23627;53.302;-6.362;2022-09-24T14:34:50;1.48;;;0.40;;
37787;SDS011;23627;53.302;-6.362;2022-09-24T14:37:22;1.30;;;0.30;;
37787;SDS011;23627;53.302;-6.362;2022-09-24T14:39:56;0.93;;;0.30;;
37787;SDS011;23627;53.302;-6.362;2022-09-24T14:46:24;2.28;;;0.30;;
37787;SDS011;23627;53.302;-6.362;2022-09-24T14:49:26;1.75;;;0.30;;
37787;SDS011;23627;53.302;-6.362;2022-09-24T14:52:20;2.72;;;0.40;;
37787;SDS011;23627;53.302;-6.362;2022-09-24T14:58:20;1.45;;;0.30;;
37787;SDS011;23627;53.302;-6.362;2022-09-24T15:00:53;1.05;;;0.30;;
37787;SDS011;23627;53.302;-6.362;2022-09-24T15:03:49;1.15;;;0.30;;
37787;SDS011;23627;53.302;-6.362;2022-09-24T15:06:28;0.88;;;0.30;;
37787;SDS011;23627;53.302;-6.362;2022-09-24T15:09:24;1.50;;;0.38;;
37787;SDS011;23627;53.302;-6.362;2022-09-24T15:11:52;0.90;;;0.30;;
37787;SDS011;23627;53.302;-6.362;2022-09-24T15:14:21;1.08;;;0.30;;
37787;SDS011;23627;53.302;-6.362;2022-09-24T15:17:05;1.67;;;0.40;;
37787;SDS011;23627;53.302;-6.362;2022-09-24T15:19:43;1.70;;;0.35;;
37787;SDS011;23627;53.302;-6.362;2022-09-24T15:22:10;1.77;;;0.30;;
37787;SDS011;23627;53.302;-6.362;2022-09-24T15:24:38;2.28;;;0.40;;
37787;SDS011;23627;53.302;-6.362;2022-09-24T15:27:16;0.40;;;0.20;;
37787;SDS011;23627;53.302;-6.362;2022-09-24T15:30:10;1.58;;;0.50;;
37787;SDS011;23627;53.302;-6.362;2022-09-24T15:32:42;1.02;;;0.50;;
37787;SDS011;23627;53.302;-6.362;2022-09-24T15:35:08;1.48;;;0.30;;
37787;SDS011;23627;53.302;-6.362;2022-09-24T15:37:38;1.40;;;0.38;;
37787;SDS011;23627;53.302;-6.362;2022-09-24T15:40:10;1.63;;;0.60;;
37787;SDS011;23627;53.302;-6.362;2022-09-24T15:42:48;2.20;;;0.47;;
37787;SDS011;23627;53.302;-6.362;2022-09-24T15:45:21;1.17;;;0.35;;
37787;SDS011;23627;53.302;-6.362;2022-09-24T15:47:52;2.97;;;0.35;;
37787;SDS011;23627;53.302;-6.362;2022-09-24T15:50:20;1.35;;;0.30;;
37787;SDS011;23627;53.302;-6.362;2022-09-24T15:52:57;1.65;;;0.30;;
37787;SDS011;23627;53.302;-6.362;2022-09-24T15:55:25;4.22;;;0.68;;
37787;SDS011;23627;53.302;-6.362;2022-09-24T15:57:51;2.17;;;0.35;;
37787;SDS011;23627;53.302;-6.362;2022-09-24T16:00:21;3.65;;;0.85;;
37787;SDS011;23627;53.302;-6.362;2022-09-24T16:02:56;1.88;;;0.70;;
37787;SDS011;23627;53.302;-6.362;2022-09-24T16:05:23;5.00;;;0.77;;
37787;SDS011;23627;53.302;-6.362;2022-09-24T16:07:49;2.47;;;0.60;;
37787;SDS011;23627;53.302;-6.362;2022-09-24T16:10:15;1.35;;;0.55;;
37787;SDS011;23627;53.302;-6.362;2022-09-24T16:12:41;2.47;;;0.80;;
37787;SDS011;23627;53.302;-6.362;2022-09-24T16:15:11;1.33;;;0.68;;
37787;SDS011;23627;53.302;-6.362;2022-09-24T16:17:38;2.28;;;0.70;;
37787;SDS011;23627;53.302;-6.362;2022-09-24T16:20:04;1.73;;;0.60;;
37787;SDS011;23627;53.302;-6.362;2022-09-24T16:22:31;3.65;;;0.70;;
37787;SDS011;23627;53.302;-6.362;2022-09-24T16:24:58;1.95;;;0.70;;
37787;SDS011;23627;53.302;-6.362;2022-09-24T16:27:23;1.88;;;0.63;;
37787;SDS011;23627;53.302;-6.362;2022-09-24T16:29:49;4.40;;;1.02;;
37787;SDS011;23627;53.302;-6.362;2022-09-24T16:32:15;3.60;;;1.80;;
37787;SDS011;23627;53.302;-6.362;2022-09-24T16:34:42;3.05;;;1.58;;
37787;SDS011;23627;53.302;-6.362;2022-09-24T16:37:08;2.60;;;1.52;;
37787;SDS011;23627;53.302;-6.362;2022-09-24T16:39:34;3.28;;;1.10;;
37787;SDS011;23627;53.302;-6.362;2022-09-24T16:41:59;3.20;;;1.50;;
37787;SDS011;23627;53.302;-6.362;2022-09-24T16:44:25;2.45;;;1.27;;
37787;SDS011;23627;53.302;-6.362;2022-09-24T16:46:51;2.97;;;1.40;;
37787;SDS011;23627;53.302;-6.362;2022-09-24T16:49:17;2.83;;;1.25;;
37787;SDS011;23627;53.302;-6.362;2022-09-24T16:51:43;4.32;;;1.40;;
37787;SDS011;23627;53.302;-6.362;2022-09-24T16:54:09;3.75;;;1.45;;
37787;SDS011;23627;53.302;-6.362;2022-09-24T16:56:36;3.17;;;1.40;;
37787;SDS011;23627;53.302;-6.362;2022-09-24T16:59:02;4.20;;;1.45;;
37787;SDS011;23627;53.302;-6.362;2022-09-24T17:01:28;3.42;;;1.60;;
37787;SDS011;23627;53.302;-6.362;2022-09-24T17:03:55;3.40;;;1.10;;
37787;SDS011;23627;53.302;-6.362;2022-09-24T17:06:23;3.00;;;1.10;;
37787;SDS011;23627;53.302;-6.362;2022-09-24T17:08:51;1.92;;;0.90;;
37787;SDS011;23627;53.302;-6.362;2022-09-24T17:11:35;2.45;;;0.80;;
37787;SDS011;23627;53.302;-6.362;2022-09-24T17:14:04;1.73;;;0.60;;
37787;SDS011;23627;53.302;-6.362;2022-09-24T17:16:31;1.25;;;0.75;;
37787;SDS011;23627;53.302;-6.362;2022-09-24T17:18:57;1.33;;;0.55;;
37787;SDS011;23627;53.302;-6.362;2022-09-24T17:21:24;2.75;;;0.60;;
37787;SDS011;23627;53.302;-6.362;2022-09-24T17:23:50;2.05;;;0.70;;
37787;SDS011;23627;53.302;-6.362;2022-09-24T17:26:17;1.98;;;0.73;;
37787;SDS011;23627;53.302;-6.362;2022-09-24T17:28:46;1.23;;;0.50;;
37787;SDS011;23627;53.302;-6.362;2022-09-24T17:31:14;1.63;;;0.60;;
37787;SDS011;23627;53.302;-6.362;2022-09-24T17:33:41;2.28;;;0.80;;